createdAt,value
2019-03-12T00:00:58.030Z,42.90
2019-03-12T00:01:58.133Z,43.62
2019-03-12T00:02:58.009Z,42.91
2019-03-12T00:03:57.999Z,43.12
2019-03-12T00:04:57.990Z,43.62
2019-03-12T00:05:57.976Z,43.51
2019-03-12T00:06:57.960Z,43.49
2019-03-12T00:07:58.310Z,43.49
2019-03-12T00:08:57.946Z,43.59
2019-03-12T00:09:57.939Z,43.32
2019-03-12T00:10:58.025Z,43.32
2019-03-12T00:11:57.912Z,43.62
2019-03-12T00:12:58.297Z,43.41
2019-03-12T00:13:57.909Z,43.51
2019-03-12T00:14:58.018Z,43.01
2019-03-12T00:15:57.981Z,43.41
2019-03-12T00:16:57.853Z,43.29
2019-03-12T00:17:57.856Z,43.41
2019-03-12T00:18:57.961Z,43.41
2019-03-12T00:19:58.120Z,43.51
2019-03-12T00:20:57.812Z,43.82
2019-03-12T00:21:57.805Z,42.91
2019-03-12T00:22:57.793Z,43.51
2019-03-12T00:23:57.899Z,43.40
2019-03-12T00:24:57.830Z,43.32
2019-03-12T00:25:58.214Z,43.41
2019-03-12T00:26:57.746Z,42.91
2019-03-12T00:27:57.748Z,43.62
2019-03-12T00:28:57.723Z,43.82
2019-03-12T00:29:57.715Z,43.49
2019-03-12T00:30:57.697Z,43.51
2019-03-12T00:31:57.848Z,43.09
2019-03-12T00:32:57.675Z,43.32
2019-03-12T00:33:57.666Z,43.62
2019-03-12T00:34:57.657Z,43.41
2019-03-12T00:35:57.955Z,43.09
2019-03-12T00:36:57.640Z,43.09
2019-03-12T00:37:57.806Z,43.49
2019-03-12T00:38:57.608Z,43.41
2019-03-12T00:39:57.596Z,43.51
2019-03-12T00:40:57.590Z,43.40
2019-03-12T00:41:57.597Z,43.29
2019-03-12T00:43:04.791Z,43.59
2019-03-12T00:43:57.553Z,43.62
2019-03-12T00:44:57.549Z,43.51
2019-03-12T00:45:57.528Z,43.59
2019-03-12T00:46:57.522Z,43.40
2019-03-12T00:47:57.634Z,43.59
2019-03-12T00:48:57.534Z,43.40
2019-03-12T00:49:57.617Z,43.82
2019-03-12T00:50:57.561Z,43.40
2019-03-12T00:51:57.467Z,43.09
2019-03-12T00:52:57.455Z,43.62
2019-03-12T00:53:57.569Z,43.51
2019-03-12T00:54:57.887Z,43.41
2019-03-12T00:55:57.424Z,43.82
2019-03-12T00:56:57.402Z,43.51
2019-03-12T00:57:57.397Z,43.62
2019-03-12T00:58:57.389Z,43.82
2019-03-12T00:59:57.406Z,43.09
2019-03-12T01:00:57.921Z,43.62
2019-03-12T01:01:57.350Z,43.59
2019-03-12T01:02:57.356Z,43.41
2019-03-12T01:03:57.355Z,43.41
2019-03-12T01:04:57.467Z,43.41
2019-03-12T01:05:57.315Z,43.32
2019-03-12T01:06:57.331Z,43.40
2019-03-12T01:07:57.287Z,43.41
2019-03-12T01:09:04.801Z,43.12
2019-03-12T01:09:57.390Z,43.40
2019-03-12T01:10:57.240Z,43.40
2019-03-12T01:11:57.225Z,43.41
2019-03-12T01:12:57.308Z,43.62
2019-03-12T01:13:57.323Z,43.62
2019-03-12T01:14:57.203Z,43.41
2019-03-12T01:15:57.194Z,43.41
2019-03-12T01:16:57.290Z,43.41
2019-03-12T01:17:57.166Z,43.40
2019-03-12T01:18:57.577Z,43.40
2019-03-12T01:19:57.150Z,43.41
2019-03-12T01:20:57.127Z,43.41
2019-03-12T01:22:04.826Z,43.41
2019-03-12T01:22:57.276Z,43.41
2019-03-12T01:23:57.094Z,43.41
2019-03-12T01:24:57.121Z,43.41
2019-03-12T01:25:57.068Z,43.62
2019-03-12T01:26:57.217Z,43.41
2019-03-12T01:27:57.048Z,43.40
2019-03-12T01:28:57.035Z,43.59
2019-03-12T01:30:04.930Z,43.41
2019-03-12T01:30:57.069Z,43.51
2019-03-12T01:31:57.003Z,43.62
2019-03-12T01:32:56.992Z,43.41
2019-03-12T01:33:56.987Z,43.41
2019-03-12T01:34:57.074Z,43.41
2019-03-12T01:35:57.983Z,43.41
2019-03-12T01:36:56.943Z,43.41
2019-03-12T01:37:56.930Z,43.41
2019-03-12T01:38:57.281Z,43.41
2019-03-12T01:40:04.908Z,43.41
2019-03-12T01:40:56.998Z,43.32
2019-03-12T01:41:56.940Z,43.41
2019-03-12T01:42:56.879Z,43.41
2019-03-12T01:43:57.028Z,43.41
2019-03-12T01:44:56.962Z,43.21
2019-03-12T01:45:56.844Z,43.41
2019-03-12T01:46:56.936Z,43.41
2019-03-12T01:47:57.317Z,43.71
2019-03-12T01:48:56.813Z,43.71
2019-03-12T01:50:04.430Z,43.32
2019-03-12T01:50:56.994Z,43.41
2019-03-12T01:51:56.784Z,43.41
2019-03-12T01:52:56.763Z,43.62
2019-03-12T01:53:57.039Z,43.41
2019-03-12T01:54:56.753Z,43.51
2019-03-12T01:55:56.729Z,43.32
2019-03-12T01:56:56.721Z,43.41
2019-03-12T01:57:56.713Z,43.21
2019-03-12T01:58:56.699Z,43.62
2019-03-12T01:59:56.722Z,43.71
2019-03-12T02:00:56.676Z,43.41
2019-03-12T02:01:56.676Z,43.71
2019-03-12T02:02:56.652Z,43.32
2019-03-12T02:03:56.649Z,43.41
2019-03-12T02:04:56.669Z,43.32
2019-03-12T02:05:56.672Z,43.71
2019-03-12T02:06:57.621Z,43.51
2019-03-12T02:07:56.598Z,43.51
2019-03-12T02:08:56.582Z,43.21
2019-03-12T02:09:56.578Z,43.41
2019-03-12T02:10:56.571Z,43.71
2019-03-12T02:12:04.020Z,43.41
2019-03-12T02:13:04.514Z,43.41
2019-03-12T02:13:56.528Z,43.32
2019-03-12T02:14:56.524Z,43.71
2019-03-12T02:15:56.516Z,43.41
2019-03-12T02:16:56.497Z,43.62
2019-03-12T02:17:56.500Z,43.41
2019-03-12T02:18:56.511Z,43.41
2019-03-12T02:19:56.462Z,43.51
2019-03-12T02:20:56.453Z,43.71
2019-03-12T02:21:56.446Z,43.41
2019-03-12T02:22:56.431Z,43.71
2019-03-12T02:23:56.451Z,43.71
2019-03-12T02:24:56.863Z,43.32
2019-03-12T02:25:56.397Z,43.21
2019-03-12T02:26:57.272Z,43.51
2019-03-12T02:27:56.380Z,43.12
2019-03-12T02:28:56.446Z,43.71
2019-03-12T02:29:56.376Z,43.51
2019-03-12T02:30:56.516Z,43.21
2019-03-12T02:31:56.439Z,43.21
2019-03-12T02:32:56.437Z,43.32
2019-03-12T02:33:56.515Z,43.71
2019-03-12T02:34:56.404Z,43.32
2019-03-12T02:35:56.887Z,43.62
2019-03-12T02:36:56.377Z,43.51
2019-03-12T02:37:56.521Z,43.21
2019-03-12T02:38:56.918Z,43.51
2019-03-12T02:39:56.343Z,43.71
2019-03-12T02:40:57.036Z,43.21
2019-03-12T02:41:56.520Z,43.71
2019-03-12T02:42:56.306Z,43.71
2019-03-12T02:43:56.308Z,43.51
2019-03-12T02:44:56.389Z,43.21
2019-03-12T02:45:56.274Z,43.51
2019-03-12T02:46:56.266Z,43.51
2019-03-12T02:47:57.487Z,43.32
2019-03-12T02:48:57.046Z,43.51
2019-03-12T02:49:56.231Z,43.32
2019-03-12T02:50:59.345Z,43.41
2019-03-12T02:51:56.205Z,43.41
2019-03-12T02:52:57.173Z,43.51
2019-03-12T02:53:57.541Z,43.41
2019-03-12T02:54:56.182Z,43.12
2019-03-12T02:55:56.160Z,43.71
2019-03-12T02:56:56.273Z,43.71
2019-03-12T02:57:56.146Z,43.71
2019-03-12T02:58:56.137Z,43.71
2019-03-12T02:59:56.667Z,43.62
2019-03-12T03:00:56.104Z,43.51
2019-03-12T03:01:56.236Z,43.41
2019-03-12T03:02:56.629Z,43.21
2019-03-12T03:03:56.756Z,43.21
2019-03-12T03:04:56.060Z,43.62
2019-03-12T03:05:57.103Z,43.41
2019-03-12T03:06:56.033Z,43.41
2019-03-12T03:07:56.051Z,43.32
2019-03-12T03:08:56.009Z,43.41
2019-03-12T03:09:56.901Z,43.41
2019-03-12T03:10:55.997Z,43.32
2019-03-12T03:11:56.189Z,43.41
2019-03-12T03:12:55.979Z,43.71
2019-03-12T03:13:55.957Z,43.21
2019-03-12T03:14:55.952Z,43.32
2019-03-12T03:15:55.940Z,43.62
2019-03-12T03:16:55.937Z,43.21
2019-03-12T03:17:56.197Z,43.32
2019-03-12T03:18:55.907Z,43.41
2019-03-12T03:19:55.893Z,43.51
2019-03-12T03:20:56.533Z,43.51
2019-03-12T03:21:55.880Z,43.51
2019-03-12T03:23:03.806Z,43.41
2019-03-12T03:23:55.845Z,43.32
2019-03-12T03:24:55.839Z,43.32
2019-03-12T03:25:55.829Z,43.41
2019-03-12T03:26:57.117Z,43.41
2019-03-12T03:27:55.796Z,43.51
2019-03-12T03:28:56.213Z,43.71
2019-03-12T03:29:55.787Z,43.71
2019-03-12T03:30:55.773Z,43.41
2019-03-12T03:31:55.764Z,43.32
2019-03-12T03:32:55.770Z,43.51
2019-03-12T03:33:55.734Z,43.21
2019-03-12T03:34:55.903Z,43.51
2019-03-12T03:35:55.707Z,43.21
2019-03-12T03:36:55.705Z,43.32
2019-03-12T03:37:55.698Z,43.71
2019-03-12T03:38:55.710Z,43.32
2019-03-12T03:39:56.002Z,43.51
2019-03-12T03:40:55.690Z,43.32
2019-03-12T03:41:55.649Z,43.32
2019-03-12T03:42:55.629Z,43.71
2019-03-12T03:43:56.209Z,43.41
2019-03-12T03:44:55.605Z,43.41
2019-03-12T03:45:56.197Z,43.41
2019-03-12T03:46:55.644Z,43.41
2019-03-12T03:47:55.579Z,43.32
2019-03-12T03:48:55.564Z,43.51
2019-03-12T03:49:56.594Z,43.41
2019-03-12T03:50:55.570Z,43.32
2019-03-12T03:51:55.558Z,43.51
2019-03-12T03:52:55.640Z,43.32
2019-03-12T03:53:56.096Z,43.71
2019-03-12T03:54:55.493Z,43.41
2019-03-12T03:55:55.830Z,43.71
2019-03-12T03:56:56.101Z,43.62
2019-03-12T03:57:55.475Z,43.51
2019-03-12T03:58:55.931Z,43.51
2019-03-12T03:59:55.443Z,43.71
2019-03-12T04:00:56.100Z,43.41
2019-03-12T04:01:55.447Z,43.51
2019-03-12T04:02:56.832Z,43.12
2019-03-12T04:03:55.399Z,43.21
2019-03-12T04:04:56.133Z,43.12
2019-03-12T04:05:55.377Z,43.21
2019-03-12T04:06:55.367Z,43.41
2019-03-12T04:07:55.369Z,43.41
2019-03-12T04:08:55.345Z,43.41
2019-03-12T04:09:55.328Z,43.41
2019-03-12T04:10:56.496Z,43.71
2019-03-12T04:11:55.305Z,43.71
2019-03-12T04:12:55.294Z,43.32
2019-03-12T04:13:56.362Z,43.32
2019-03-12T04:14:55.271Z,43.12
2019-03-12T04:15:55.340Z,43.51
2019-03-12T04:16:55.735Z,43.51
2019-03-12T04:17:55.239Z,43.32
2019-03-12T04:18:55.233Z,43.74
2019-03-12T04:19:56.151Z,43.71
2019-03-12T04:20:55.203Z,43.71
2019-03-12T04:21:55.198Z,43.32
2019-03-12T04:22:56.411Z,43.41
2019-03-12T04:23:55.172Z,43.41
2019-03-12T04:24:55.156Z,43.21
2019-03-12T04:25:55.147Z,43.41
2019-03-12T04:26:55.136Z,43.51
2019-03-12T04:27:55.150Z,43.51
2019-03-12T04:28:55.656Z,43.32
2019-03-12T04:29:55.099Z,43.71
2019-03-12T04:30:55.705Z,43.51
2019-03-12T04:31:55.093Z,43.32
2019-03-12T04:32:55.208Z,43.41
2019-03-12T04:33:55.058Z,43.71
2019-03-12T04:34:55.883Z,43.41
2019-03-12T04:35:55.072Z,43.12
2019-03-12T04:36:55.146Z,43.51
2019-03-12T04:37:55.013Z,43.32
2019-03-12T04:38:55.004Z,43.51
2019-03-12T04:39:56.110Z,43.51
2019-03-12T04:40:55.065Z,43.71
2019-03-12T04:41:54.971Z,43.71
2019-03-12T04:42:54.968Z,43.41
2019-03-12T04:43:54.951Z,43.32
2019-03-12T04:44:55.105Z,43.32
2019-03-12T04:45:54.918Z,43.51
2019-03-12T04:46:55.043Z,43.51
2019-03-12T04:47:54.915Z,43.71
2019-03-12T04:49:02.743Z,43.41
2019-03-12T04:49:54.940Z,43.12
2019-03-12T04:50:55.736Z,43.51
2019-03-12T04:51:54.862Z,43.32
2019-03-12T04:52:56.148Z,43.71
2019-03-12T04:53:54.840Z,43.32
2019-03-12T04:54:55.650Z,43.71
2019-03-12T04:55:54.807Z,43.51
2019-03-12T04:56:54.792Z,43.51
2019-03-12T04:57:54.779Z,43.51
2019-03-12T04:58:54.930Z,43.41
2019-03-12T04:59:55.650Z,43.51
2019-03-12T05:00:54.758Z,43.41
2019-03-12T05:01:54.764Z,43.12
2019-03-12T05:02:54.734Z,43.41
2019-03-12T05:03:54.713Z,43.51
2019-03-12T05:04:54.832Z,43.71
2019-03-12T05:06:02.305Z,43.41
2019-03-12T05:06:54.688Z,43.41
2019-03-12T05:07:54.680Z,43.41
2019-03-12T05:08:54.659Z,43.71
2019-03-12T05:09:55.698Z,43.41
2019-03-12T05:10:55.235Z,43.41
2019-03-12T05:11:54.648Z,43.62
2019-03-12T05:12:54.646Z,43.41
2019-03-12T05:13:54.603Z,43.41
2019-03-12T05:14:54.595Z,43.41
2019-03-12T05:15:54.586Z,43.62
2019-03-12T05:16:54.665Z,43.71
2019-03-12T05:17:54.560Z,43.41
2019-03-12T05:18:54.552Z,43.41
2019-03-12T05:19:54.555Z,43.21
2019-03-12T05:20:54.523Z,43.41
2019-03-12T05:21:54.525Z,43.41
2019-03-12T05:22:55.202Z,43.21
2019-03-12T05:23:54.644Z,43.21
2019-03-12T05:24:54.481Z,43.32
2019-03-12T05:25:54.474Z,43.41
2019-03-12T05:26:54.546Z,43.41
2019-03-12T05:27:54.448Z,43.41
2019-03-12T05:28:55.203Z,43.62
2019-03-12T05:29:55.705Z,43.41
2019-03-12T05:30:54.412Z,43.51
2019-03-12T05:31:54.400Z,43.62
2019-03-12T05:32:54.531Z,43.71
2019-03-12T05:33:55.300Z,43.41
2019-03-12T05:34:54.865Z,43.41
2019-03-12T05:35:54.386Z,43.41
2019-03-12T05:36:54.357Z,43.41
2019-03-12T05:37:55.207Z,43.41
2019-03-12T05:38:54.332Z,43.41
2019-03-12T05:39:54.307Z,43.41
2019-03-12T05:40:54.808Z,43.62
2019-03-12T05:41:58.858Z,43.41
2019-03-12T05:42:54.273Z,43.41
2019-03-12T05:43:55.454Z,43.51
2019-03-12T05:44:54.251Z,43.41
2019-03-12T05:45:54.400Z,43.71
2019-03-12T05:46:55.209Z,43.51
2019-03-12T05:47:55.208Z,43.51
2019-03-12T05:48:54.210Z,43.62
2019-03-12T05:49:54.513Z,43.12
2019-03-12T05:50:54.563Z,43.41
2019-03-12T05:51:54.710Z,43.32
2019-03-12T05:52:54.269Z,43.41
2019-03-12T05:53:54.876Z,43.21
2019-03-12T05:54:54.149Z,43.32
2019-03-12T05:55:55.710Z,43.19
2019-03-12T05:56:54.123Z,42.32
2019-03-12T05:57:54.716Z,43.21
2019-03-12T05:58:54.642Z,43.51
2019-03-12T05:59:54.488Z,43.21
2019-03-12T06:00:54.713Z,42.29
2019-03-12T06:01:54.062Z,42.32
2019-03-12T06:02:54.153Z,42.49
2019-03-12T06:03:54.036Z,42.41
2019-03-12T06:04:54.961Z,42.32
2019-03-12T06:05:54.023Z,42.32
2019-03-12T06:06:54.032Z,42.29
2019-03-12T06:07:55.515Z,42.32
2019-03-12T06:08:53.984Z,42.32
2019-03-12T06:09:53.998Z,42.29
2019-03-12T06:10:55.213Z,42.32
2019-03-12T06:11:54.054Z,43.21
2019-03-12T06:12:54.284Z,42.32
2019-03-12T06:13:55.718Z,42.71
2019-03-12T06:14:54.719Z,42.41
2019-03-12T06:15:53.905Z,43.12
2019-03-12T06:16:54.716Z,43.09
2019-03-12T06:17:55.965Z,43.09
2019-03-12T06:18:53.875Z,43.09
2019-03-12T06:19:53.859Z,42.99
2019-03-12T06:20:53.850Z,42.99
2019-03-12T06:21:54.305Z,42.90
2019-03-12T06:22:54.888Z,42.90
2019-03-12T06:23:54.810Z,43.01
2019-03-12T06:24:54.459Z,43.09
2019-03-12T06:25:55.220Z,42.79
2019-03-12T06:26:53.782Z,43.09
2019-03-12T06:27:53.769Z,43.09
2019-03-12T06:28:53.993Z,43.09
2019-03-12T06:29:53.752Z,42.82
2019-03-12T06:30:54.995Z,42.49
2019-03-12T06:31:53.724Z,42.61
2019-03-12T06:32:54.721Z,42.71
2019-03-12T06:33:53.790Z,42.29
2019-03-12T06:34:54.166Z,42.40
2019-03-12T06:35:54.497Z,42.79
2019-03-12T06:36:53.962Z,43.09
2019-03-12T06:37:54.640Z,42.90
2019-03-12T06:38:53.613Z,42.79
2019-03-12T06:39:53.629Z,42.69
2019-03-12T06:41:54.619Z,42.29
2019-03-12T06:42:54.053Z,42.19
2019-03-12T06:43:53.487Z,42.10
2019-03-12T06:44:53.607Z,42.10
2019-03-12T06:45:53.477Z,42.10
2019-03-12T06:46:55.754Z,42.19
2019-03-12T06:47:53.451Z,42.69
2019-03-12T06:48:53.470Z,42.19
2019-03-12T06:49:54.398Z,42.69
2019-03-12T06:50:53.532Z,42.60
2019-03-12T06:51:53.608Z,42.90
2019-03-12T06:52:53.575Z,42.19
2019-03-12T06:53:54.078Z,42.10
2019-03-12T06:54:53.597Z,42.40
2019-03-12T06:55:53.458Z,42.19
2019-03-12T06:56:53.463Z,42.10
2019-03-12T06:57:53.634Z,42.79
2019-03-12T06:58:54.276Z,42.79
2019-03-12T06:59:53.301Z,42.49
2019-03-12T07:02:33.556Z,43.29
2019-03-12T07:03:30.188Z,43.27
2019-03-12T07:04:43.617Z,43.48
2019-03-12T07:05:31.177Z,42.60
2019-03-12T07:06:30.424Z,42.57
2019-03-12T07:07:34.489Z,42.69
2019-03-12T07:08:31.662Z,42.40
2019-03-12T07:09:29.598Z,43.19
2019-03-12T07:10:30.429Z,43.40
2019-03-12T07:11:30.419Z,42.49
2019-03-12T07:12:29.712Z,43.59
2019-03-12T07:13:29.034Z,43.49
2019-03-12T07:14:29.959Z,43.59
2019-03-12T07:15:29.892Z,43.70
2019-03-12T07:16:33.393Z,43.40
2019-03-12T07:17:29.439Z,43.40
2019-03-12T07:18:29.118Z,43.70
2019-03-12T07:19:32.557Z,43.40
2019-03-12T07:20:29.930Z,43.40
2019-03-12T07:21:36.162Z,43.29
2019-03-12T07:22:28.625Z,42.90
2019-03-12T07:23:29.109Z,43.40
2019-03-12T07:24:31.458Z,43.59
2019-03-12T07:29:23.401Z,43.40
2019-03-12T07:30:13.060Z,43.29
2019-03-12T07:31:11.628Z,43.19
2019-03-12T07:32:14.219Z,43.40
2019-03-12T07:33:10.540Z,43.40
2019-03-12T07:34:10.508Z,43.40
2019-03-12T07:35:10.999Z,43.49
2019-03-12T07:36:10.397Z,43.29
2019-03-12T07:37:11.771Z,43.29
2019-03-12T07:38:11.670Z,43.29
2019-03-12T07:39:10.391Z,43.59
2019-03-12T07:40:10.509Z,43.40
2019-03-12T07:41:30.330Z,43.40
2019-03-12T07:42:13.761Z,43.40
2019-03-12T07:43:10.073Z,43.40
2019-03-12T07:44:10.430Z,43.40
2019-03-12T07:45:10.591Z,43.49
2019-03-12T07:46:10.548Z,43.49
2019-03-12T07:48:11.183Z,43.40
2019-03-12T07:49:12.410Z,43.19
2019-03-12T07:50:11.201Z,43.29
2019-03-12T07:53:29.110Z,43.49
2019-03-12T07:54:29.605Z,43.79
2019-03-12T07:55:29.952Z,43.40
2019-03-12T07:59:46.663Z,42.79
2019-03-12T08:00:40.835Z,43.09
2019-03-12T08:01:39.874Z,43.09
2019-03-12T08:02:40.010Z,43.40
2019-03-12T08:05:00.077Z,43.59
2019-03-12T08:06:01.619Z,43.29
2019-03-12T08:08:11.273Z,42.29
2019-03-12T08:09:10.147Z,42.29
2019-03-12T08:10:13.619Z,42.29
2019-03-12T08:11:15.947Z,43.29
2019-03-12T08:12:11.523Z,43.19
2019-03-12T08:13:17.662Z,42.29
2019-03-12T08:14:12.460Z,42.29
2019-03-12T08:15:22.931Z,43.29
2019-03-12T08:16:10.840Z,42.29
2019-03-12T08:17:11.185Z,42.29
2019-03-12T08:18:11.335Z,42.29
2019-03-12T08:19:10.083Z,42.29
2019-03-12T08:20:10.812Z,42.40
2019-03-12T08:21:21.432Z,41.97
2019-03-12T08:22:10.689Z,41.80
2019-03-12T08:23:09.532Z,40.37
2019-03-12T08:24:14.630Z,40.89
2019-03-12T08:25:10.645Z,40.19
2019-03-12T08:26:09.910Z,40.80
2019-03-12T08:27:10.901Z,40.50
2019-03-12T08:28:16.494Z,40.80
2019-03-12T08:29:10.992Z,40.80
2019-03-12T08:30:10.913Z,40.39
2019-03-12T08:31:10.531Z,40.80
2019-03-12T08:32:09.369Z,39.50
2019-03-12T08:33:09.563Z,39.89
2019-03-12T08:34:09.701Z,40.00
2019-03-12T08:35:12.239Z,40.09
2019-03-12T08:36:09.877Z,39.37
2019-03-12T08:37:09.835Z,39.50
2019-03-12T08:38:10.592Z,39.39
2019-03-12T08:39:09.321Z,40.00
2019-03-12T08:40:10.294Z,39.59
2019-03-12T08:41:09.405Z,39.29
2019-03-12T08:42:09.257Z,39.20
2019-03-12T08:43:09.423Z,39.20
2019-03-12T08:44:10.985Z,38.78
2019-03-12T08:45:11.066Z,39.29
2019-03-12T08:46:10.421Z,39.39
2019-03-12T08:47:10.929Z,38.89
2019-03-12T08:48:12.600Z,38.89
2019-03-12T08:49:09.277Z,38.09
2019-03-12T08:50:11.061Z,37.79
2019-03-12T08:51:11.428Z,38.29
2019-03-12T08:52:09.628Z,37.98
2019-03-12T08:53:09.231Z,37.79
2019-03-12T08:54:12.614Z,38.48
2019-03-12T08:55:09.436Z,38.07
2019-03-12T08:56:09.198Z,38.48
2019-03-12T08:57:09.190Z,37.77
2019-03-12T08:58:10.206Z,37.77
2019-03-12T08:59:24.846Z,37.70
2019-03-12T09:00:10.344Z,37.68
2019-03-12T09:01:09.146Z,37.88
2019-03-12T09:02:10.000Z,37.90
2019-03-12T09:03:09.119Z,37.88
2019-03-12T09:04:11.045Z,37.59
2019-03-12T09:05:09.254Z,37.49
2019-03-12T09:06:10.510Z,37.10
2019-03-12T09:07:10.934Z,36.38
2019-03-12T09:08:09.936Z,36.40
2019-03-12T09:09:09.575Z,36.28
2019-03-12T09:10:11.934Z,35.88
2019-03-12T09:11:09.227Z,35.99
2019-03-12T09:12:09.198Z,36.60
2019-03-12T09:13:09.935Z,36.58
2019-03-12T09:14:09.938Z,36.19
2019-03-12T09:15:17.665Z,36.38
2019-03-12T09:16:10.306Z,36.49
2019-03-12T09:17:08.966Z,36.29
2019-03-12T09:18:09.073Z,36.28
2019-03-12T09:19:12.938Z,35.58
2019-03-12T09:20:11.194Z,36.18
2019-03-12T09:21:09.835Z,35.68
2019-03-12T09:22:20.111Z,35.68
2019-03-12T09:23:08.992Z,35.28
2019-03-12T09:24:10.630Z,35.38
2019-03-12T09:25:11.658Z,35.88
2019-03-12T09:26:09.057Z,34.99
2019-03-12T09:27:09.010Z,35.19
2019-03-12T09:28:09.553Z,35.48
2019-03-12T09:29:20.477Z,35.28
2019-03-12T09:30:12.205Z,34.78
2019-03-12T09:31:09.982Z,34.78
2019-03-12T09:32:09.702Z,33.88
2019-03-12T09:33:09.267Z,34.09
2019-03-12T09:35:40.579Z,33.48
2019-03-12T09:36:39.915Z,33.78
2019-03-12T09:37:41.148Z,33.78
2019-03-12T09:38:41.147Z,33.58
2019-03-12T09:39:40.163Z,33.88
2019-03-12T09:40:40.156Z,33.70
2019-03-12T09:41:45.551Z,33.80
2019-03-12T09:42:41.727Z,34.69
2019-03-12T09:43:43.225Z,34.99
2019-03-12T09:44:41.943Z,35.99
2019-03-12T09:45:40.808Z,37.10
2019-03-12T09:46:39.929Z,36.68
2019-03-12T09:47:41.574Z,36.98
2019-03-12T09:48:39.782Z,37.88
2019-03-12T09:49:39.808Z,37.18
2019-03-12T09:50:40.730Z,37.58
2019-03-12T09:51:40.729Z,37.77
2019-03-12T09:52:39.779Z,38.07
2019-03-12T09:53:40.307Z,38.07
2019-03-12T09:54:40.317Z,37.76
2019-03-12T09:55:41.390Z,38.48
2019-03-12T09:56:41.228Z,37.86
2019-03-12T09:57:40.674Z,38.38
2019-03-12T09:58:39.993Z,38.18
2019-03-12T09:59:39.906Z,38.18
2019-03-12T10:00:41.808Z,38.68
2019-03-12T10:01:39.723Z,38.68
2019-03-12T10:02:39.929Z,38.38
2019-03-12T10:03:40.425Z,38.18
2019-03-12T10:04:41.077Z,38.28
2019-03-12T10:05:43.828Z,39.07
2019-03-12T10:06:39.667Z,38.68
2019-03-12T10:07:40.277Z,38.38
2019-03-12T10:08:39.716Z,39.07
2019-03-12T10:09:40.078Z,38.57
2019-03-12T10:10:42.837Z,38.87
2019-03-12T10:11:39.744Z,38.48
2019-03-12T10:12:39.635Z,38.98
2019-03-12T10:13:39.754Z,39.37
2019-03-12T10:14:39.543Z,39.37
2019-03-12T10:15:42.621Z,39.28
2019-03-12T10:16:39.741Z,39.48
2019-03-12T10:18:02.555Z,38.98
2019-03-12T10:18:44.206Z,38.78
2019-03-12T10:19:40.273Z,39.18
2019-03-12T10:20:40.789Z,38.78
2019-03-12T10:21:39.867Z,39.37
2019-03-12T10:22:39.814Z,39.07
2019-03-12T10:23:40.888Z,39.07
2019-03-12T10:24:39.408Z,39.48
2019-03-12T10:25:40.739Z,39.48
2019-03-12T10:26:42.238Z,39.37
2019-03-12T10:27:45.618Z,39.48
2019-03-12T10:28:41.345Z,39.18
2019-03-12T10:29:39.518Z,39.37
2019-03-12T10:30:39.806Z,39.37
2019-03-12T10:31:40.241Z,39.18
2019-03-12T10:32:39.410Z,39.37
2019-03-12T10:33:39.745Z,39.98
2019-03-12T10:34:42.179Z,39.78
2019-03-12T10:35:40.246Z,40.08
2019-03-12T10:36:40.144Z,39.78
2019-03-12T10:37:40.761Z,39.56
2019-03-12T10:38:39.227Z,39.87
2019-03-12T10:39:40.742Z,39.87
2019-03-12T10:40:39.299Z,39.37
2019-03-12T10:41:39.478Z,39.48
2019-03-12T10:42:40.745Z,39.78
2019-03-12T10:43:40.198Z,39.86
2019-03-12T10:44:40.446Z,39.67
2019-03-12T10:45:45.652Z,39.37
2019-03-12T10:46:40.796Z,39.07
2019-03-12T10:47:39.358Z,39.48
2019-03-12T10:48:43.989Z,39.37
2019-03-12T10:49:42.301Z,39.48
2019-03-12T10:50:40.369Z,39.18
2019-03-12T10:51:44.239Z,39.36
2019-03-12T11:00:03.167Z,39.15
2019-03-12T11:03:08.571Z,39.95
2019-03-12T11:04:10.593Z,39.95
2019-03-12T11:05:16.062Z,40.25
2019-03-12T11:06:10.499Z,39.95
2019-03-12T11:07:16.324Z,39.46
2019-03-12T11:08:10.189Z,40.06
2019-03-12T11:09:10.148Z,39.15
2019-03-12T11:10:08.374Z,38.85
2019-03-12T11:11:10.627Z,38.06
2019-03-12T11:12:08.528Z,37.76
2019-03-12T11:13:14.305Z,35.96
2019-03-12T11:14:10.324Z,36.46
2019-03-12T11:15:08.907Z,36.86
2019-03-12T11:16:10.857Z,35.86
2019-03-12T11:17:22.018Z,35.66
2019-03-12T11:18:10.369Z,35.26
2019-03-12T11:19:25.003Z,35.76
2019-03-12T11:20:10.768Z,36.16
2019-03-12T11:21:08.226Z,35.46
2019-03-12T11:22:11.230Z,35.76
2019-03-12T11:26:10.197Z,35.46
2019-03-12T11:26:18.766Z,35.26
2019-03-12T11:27:19.219Z,34.76
2019-03-12T11:28:19.229Z,35.56
2019-03-12T11:29:19.733Z,35.36
2019-03-12T11:30:18.106Z,33.86
2019-03-12T11:31:18.399Z,33.56
2019-03-12T11:32:28.271Z,33.86
2019-03-12T11:33:19.315Z,33.66
2019-03-12T11:34:18.567Z,34.06
2019-03-12T11:35:18.064Z,33.86
2019-03-12T11:36:18.031Z,33.06
2019-03-12T11:37:24.761Z,33.66
2019-03-12T11:38:19.006Z,32.76
2019-03-12T11:39:19.194Z,33.56
2019-03-12T11:40:17.994Z,33.18
2019-03-12T11:41:19.237Z,33.38
2019-03-12T11:42:17.997Z,32.56
2019-03-12T11:43:19.226Z,32.08
2019-03-12T11:44:17.952Z,32.18
2019-03-12T11:45:20.007Z,32.26
2019-03-12T11:46:17.911Z,32.06
2019-03-12T11:47:18.174Z,32.17
2019-03-12T11:48:17.993Z,31.96
2019-03-12T11:49:22.800Z,31.57
2019-03-12T11:50:28.652Z,31.07
2019-03-12T11:51:20.210Z,30.48
2019-03-12T11:52:17.892Z,30.98
2019-03-12T11:53:18.726Z,30.38
2019-03-12T11:54:19.259Z,30.48
2019-03-12T11:55:19.057Z,30.68
2019-03-12T11:56:18.405Z,30.48
2019-03-12T11:57:19.258Z,30.18
2019-03-12T11:58:18.744Z,29.86
2019-03-12T11:59:18.818Z,30.57
2019-03-12T12:00:19.456Z,29.48
2019-03-12T12:01:19.727Z,30.58
2019-03-12T12:02:17.742Z,29.67
2019-03-12T12:03:17.984Z,31.07
2019-03-12T12:04:18.095Z,29.97
2019-03-12T12:05:17.817Z,30.36
2019-03-12T12:06:28.660Z,31.16
2019-03-12T12:07:18.770Z,31.37
2019-03-12T12:08:22.557Z,30.87
2019-03-12T12:09:18.316Z,30.07
2019-03-12T12:10:18.733Z,31.07
2019-03-12T12:11:18.433Z,31.16
2019-03-12T12:12:17.601Z,30.85
2019-03-12T12:13:18.470Z,31.46
2019-03-12T12:14:17.944Z,30.85
2019-03-12T12:15:18.770Z,30.95
2019-03-12T12:16:25.343Z,30.55
2019-03-12T12:17:17.557Z,30.85
2019-03-12T12:18:18.188Z,31.37
2019-03-12T12:19:17.999Z,31.16
2019-03-12T12:22:05.051Z,31.96
2019-03-12T12:23:06.205Z,32.26
2019-03-12T12:24:06.009Z,31.26
2019-03-12T12:25:05.462Z,31.55
2019-03-12T12:26:06.851Z,30.65
2019-03-12T12:28:32.830Z,32.15
2019-03-12T12:29:33.141Z,31.95
2019-03-12T12:30:32.648Z,31.55
2019-03-12T12:31:32.349Z,31.25
2019-03-12T12:32:34.077Z,31.05
2019-03-12T12:33:32.479Z,31.16
2019-03-12T12:34:38.979Z,31.37
2019-03-12T12:35:36.615Z,30.95
2019-03-12T12:36:32.290Z,30.25
2019-03-12T12:37:34.657Z,31.25
2019-03-12T12:38:32.819Z,29.97
2019-03-12T12:39:34.905Z,30.35
2019-03-12T12:40:33.289Z,30.25
2019-03-12T12:41:32.556Z,29.95
2019-03-12T12:42:32.247Z,30.25
2019-03-12T12:43:33.575Z,30.65
2019-03-12T12:44:33.674Z,30.35
2019-03-12T12:45:33.684Z,30.66
2019-03-12T12:46:32.181Z,30.87
2019-03-12T12:47:32.327Z,30.85
2019-03-12T12:48:32.632Z,30.75
2019-03-12T12:49:32.493Z,30.55
2019-03-12T12:50:32.271Z,30.85
2019-03-12T12:51:32.550Z,30.35
2019-03-12T12:52:32.122Z,29.35
2019-03-12T12:53:33.558Z,30.05
2019-03-12T12:54:32.094Z,30.25
2019-03-12T12:55:32.369Z,30.35
2019-03-12T12:56:32.617Z,29.65
2019-03-12T12:57:33.093Z,29.85
2019-03-12T12:58:36.028Z,29.85
2019-03-12T12:59:33.221Z,29.75
2019-03-12T13:00:32.029Z,30.45
2019-03-12T13:01:32.534Z,31.15
2019-03-12T13:02:33.188Z,30.57
2019-03-12T13:03:32.877Z,30.75
2019-03-12T13:04:32.618Z,30.75
2019-03-12T13:05:32.014Z,30.27
2019-03-12T13:06:31.969Z,30.66
2019-03-12T13:07:32.441Z,30.66
2019-03-12T13:08:32.131Z,30.57
2019-03-12T13:09:32.428Z,30.36
2019-03-12T13:10:31.920Z,29.47
2019-03-12T13:11:36.960Z,29.97
2019-03-12T13:12:31.986Z,30.46
2019-03-12T13:13:32.039Z,30.07
2019-03-12T13:14:40.977Z,30.46
2019-03-12T13:15:32.859Z,29.86
2019-03-12T13:16:32.899Z,29.86
2019-03-12T13:17:33.508Z,30.36
2019-03-12T13:18:31.990Z,29.77
2019-03-12T13:19:31.989Z,29.36
2019-03-12T13:20:31.796Z,29.36
2019-03-12T13:21:32.124Z,30.38
2019-03-12T13:22:33.805Z,29.68
2019-03-12T13:23:36.145Z,30.36
2019-03-12T13:24:32.819Z,29.28